Time;durP1;ratioP1;P1;durP2;ratioP2;P2;SDS_P1;SDS_P2;PMS_P1;PMS_P2;Temp;Humidity;BMP_temperature;BMP_pressure;BME280_temperature;BME280_humidity;BME280_pressure;Samples;Min_cycle;Max_cycle;Signal;HPM_P1;HPM_P2
2022/08/25 00:00:04;;;;;;;;;;;;;;;;;;5079617;28;19994;-79
2022/08/25 00:02:29;;;;;;;;;;;;;;;;;;5097861;28;19916;-79
2022/08/25 00:04:54;;;;;;;;;;;;;;;;;;5097848;28;19924;-79
2022/08/25 00:07:20;;;;;;;;;;;;;;;;;;5096147;28;19920;-79
2022/08/25 00:09:45;;;;;;;;;;;;;;;;;;5097148;28;19966;-79
2022/08/25 00:12:11;;;;;;;;;;;;;;;;;;5097450;28;19965;-79
2022/08/25 00:14:36;;;;;;;;;;;;;;;;;;5062257;28;19923;-79
2022/08/25 00:17:02;;;;;;;;;;;;;;;;;;5078972;28;20371;-79
2022/08/25 00:19:30;;;;;;;;;;;;;;;;;;5079199;28;19916;-79
2022/08/25 00:21:55;;;;;;;;;;;;;;;;;;5079547;28;19916;-79
2022/08/25 00:24:21;;;;;;;;;;;;;;;;;;5078625;28;20021;-79
2022/08/25 00:26:48;;;;;;;;;;;;;;;;;;5079093;28;20336;-79
2022/08/25 00:29:13;;;;;;;;;;;;;;;;;;5097114;28;19923;-79
2022/08/25 00:31:38;;;;;;;;;;;;;;;;;;5078824;28;19916;-78
2022/08/25 00:34:06;;;;;;;;;;;;;;;;;;5078918;28;19912;-78
2022/08/25 00:36:31;;;;;;;;;;;;;;;;;;5061937;28;19912;-79
2022/08/25 00:38:57;;;;;;;;;;;;;;;;;;5078551;28;19918;-78
2022/08/25 00:41:23;;;;;;;;;;;;;;;;;;5096882;28;20366;-79
2022/08/25 00:43:50;;;;;;;;;;;;;;;;;;5097101;28;20356;-78
2022/08/25 00:46:17;;;;;;;;;;;;;;;;;;5078216;28;20447;-79
2022/08/25 00:48:43;;;;;;;;;;;;;;;;;;5061918;28;19954;-79
2022/08/25 00:51:09;;;;;;;;;;;;;;;;;;5051571;28;20391;-79
2022/08/25 00:53:34;;;;;;;;;;;;;;;;;;5041531;28;19916;-79
2022/08/25 00:56:00;;;;;;;;;;;;;;;;;;5058409;28;19913;-79
2022/08/25 00:58:25;;;;;;;;;;;;;;;;;;5058767;28;19955;-78
2022/08/25 01:00:52;;;;;;;;;;;;;;;;;;5057930;28;19913;-78
2022/08/25 01:03:18;;;;;;;;;;;;;;;;;;5058140;28;20018;-79
2022/08/25 01:05:45;;;;;;;;;;;;;;;;;;5058342;28;19912;-78
2022/08/25 01:08:11;;;;;;;;;;;;;;;;;;5041383;28;19971;-78
2022/08/25 01:10:37;;;;;;;;;;;;;;;;;;5075995;28;19967;-78
2022/08/25 01:13:08;;;;;;;;;;;;;;;;;;5041033;28;19972;-78
2022/08/25 01:15:33;;;;;;;;;;;;;;;;;;5057972;28;19912;-78
2022/08/25 01:17:59;;;;;;;;;;;;;;;;;;5058086;28;20275;-78
2022/08/25 01:20:26;;;;;;;;;;;;;;;;;;5041149;28;19956;-78
2022/08/25 01:22:52;;;;;;;;;;;;;;;;;;5058078;28;19913;-79
2022/08/25 01:25:23;;;;;;;;;;;;;;;;;;5040951;28;19919;-78
2022/08/25 01:27:48;;;;;;;;;;;;;;;;;;5075828;28;20367;-78
2022/08/25 01:30:14;;;;;;;;;;;;;;;;;;5040869;28;19920;-78
2022/08/25 01:32:39;;;;;;;;;;;;;;;;;;5075451;28;19917;-78
2022/08/25 01:35:05;;;;;;;;;;;;;;;;;;5057362;28;19912;-78
2022/08/25 01:37:30;;;;;;;;;;;;;;;;;;5075548;28;19916;-78
2022/08/25 01:39:55;;;;;;;;;;;;;;;;;;5057566;28;20425;-78
2022/08/25 01:42:28;;;;;;;;;;;;;;;;;;5075491;28;19977;-79
2022/08/25 01:44:53;;;;;;;;;;;;;;;;;;5057316;28;20021;-79
2022/08/25 01:47:19;;;;;;;;;;;;;;;;;;5057497;28;20432;-79
2022/08/25 01:49:44;;;;;;;;;;;;;;;;;;5075038;28;19919;-78
2022/08/25 01:52:11;;;;;;;;;;;;;;;;;;5072384;28;19968;-78
2022/08/25 01:54:37;;;;;;;;;;;;;;;;;;5077296;28;19912;-78
2022/08/25 01:57:02;;;;;;;;;;;;;;;;;;5077066;28;20328;-78
2022/08/25 01:59:27;;;;;;;;;;;;;;;;;;5077228;28;19919;-78
2022/08/25 02:01:53;;;;;;;;;;;;;;;;;;5060161;28;19912;-78
2022/08/25 02:04:18;;;;;;;;;;;;;;;;;;5077176;28;19917;-78
2022/08/25 02:06:43;;;;;;;;;;;;;;;;;;5060129;28;20274;-79
2022/08/25 02:09:10;;;;;;;;;;;;;;;;;;5094940;28;19993;-78
2022/08/25 02:11:36;;;;;;;;;;;;;;;;;;5076922;28;19939;-78
2022/08/25 02:14:01;;;;;;;;;;;;;;;;;;5076197;28;19920;-78
2022/08/25 02:16:28;;;;;;;;;;;;;;;;;;5095020;28;19969;-78
2022/08/25 02:18:54;;;;;;;;;;;;;;;;;;5076927;28;19912;-78
2022/08/25 02:21:19;;;;;;;;;;;;;;;;;;5077070;28;19962;-78
2022/08/25 02:23:44;;;;;;;;;;;;;;;;;;5076412;28;19962;-78
2022/08/25 02:26:10;;;;;;;;;;;;;;;;;;5076297;28;19968;-79
2022/08/25 02:28:36;;;;;;;;;;;;;;;;;;5076448;28;19912;-79
2022/08/25 02:31:01;;;;;;;;;;;;;;;;;;5059699;28;20062;-79
2022/08/25 02:33:27;;;;;;;;;;;;;;;;;;5076384;28;20376;-79
2022/08/25 02:35:55;;;;;;;;;;;;;;;;;;5076365;28;19951;-79
2022/08/25 02:38:20;;;;;;;;;;;;;;;;;;5059622;28;19912;-79
2022/08/25 02:40:46;;;;;;;;;;;;;;;;;;5094325;28;19923;-79
2022/08/25 02:43:11;;;;;;;;;;;;;;;;;;5094247;28;20386;-79
2022/08/25 02:45:36;;;;;;;;;;;;;;;;;;5094137;28;20010;-78
2022/08/25 02:48:02;;;;;;;;;;;;;;;;;;5059271;28;19927;-79
2022/08/25 02:50:27;;;;;;;;;;;;;;;;;;5089603;28;19928;-79
2022/08/25 02:52:53;;;;;;;;;;;;;;;;;;5074419;28;19920;-79
2022/08/25 02:55:19;;;;;;;;;;;;;;;;;;5056038;28;19921;-79
2022/08/25 02:57:44;;;;;;;;;;;;;;;;;;5056499;28;20379;-78
2022/08/25 03:00:10;;;;;;;;;;;;;;;;;;5074008;28;20428;-78
2022/08/25 03:02:36;;;;;;;;;;;;;;;;;;5056225;28;19912;-79
2022/08/25 03:05:01;;;;;;;;;;;;;;;;;;5039282;28;20014;-79
2022/08/25 03:07:27;;;;;;;;;;;;;;;;;;5039152;28;19935;-79
2022/08/25 03:09:52;;;;;;;;;;;;;;;;;;5072435;28;20398;-79
2022/08/25 03:12:17;;;;;;;;;;;;;;;;;;5073551;28;19920;-78
2022/08/25 03:14:42;;;;;;;;;;;;;;;;;;5074050;28;19927;-79
2022/08/25 03:17:08;;;;;;;;;;;;;;;;;;5072303;28;19916;-78
2022/08/25 03:19:33;;;;;;;;;;;;;;;;;;5072758;28;19917;-79
2022/08/25 03:21:59;;;;;;;;;;;;;;;;;;5038833;28;20355;-79
2022/08/25 03:24:24;;;;;;;;;;;;;;;;;;5054733;28;20018;-78
2022/08/25 03:26:53;;;;;;;;;;;;;;;;;;5073734;28;20397;-78
2022/08/25 03:29:19;;;;;;;;;;;;;;;;;;5073718;28;19916;-78
2022/08/25 03:31:44;;;;;;;;;;;;;;;;;;5055436;28;20014;-78
2022/08/25 03:34:15;;;;;;;;;;;;;;;;;;5038803;28;20007;-78
2022/08/25 03:36:40;;;;;;;;;;;;;;;;;;5055819;28;19916;-79
2022/08/25 03:39:07;;;;;;;;;;;;;;;;;;5055745;28;20317;-78
2022/08/25 03:41:32;;;;;;;;;;;;;;;;;;5073464;28;19927;-78
2022/08/25 03:43:58;;;;;;;;;;;;;;;;;;5055722;28;20361;-79
2022/08/25 03:46:23;;;;;;;;;;;;;;;;;;5038747;28;19912;-79
2022/08/25 03:48:49;;;;;;;;;;;;;;;;;;5055231;28;19919;-78
2022/08/25 03:51:18;;;;;;;;;;;;;;;;;;5065996;28;20003;-79
2022/08/25 03:53:44;;;;;;;;;;;;;;;;;;5058696;28;19912;-78
2022/08/25 03:56:09;;;;;;;;;;;;;;;;;;5093616;28;20026;-78
2022/08/25 03:58:34;;;;;;;;;;;;;;;;;;5058431;28;19955;-78
2022/08/25 04:01:00;;;;;;;;;;;;;;;;;;5075145;28;19970;-78
2022/08/25 04:03:25;;;;;;;;;;;;;;;;;;5093784;28;20460;-78
2022/08/25 04:05:51;;;;;;;;;;;;;;;;;;5058670;28;19917;-78
2022/08/25 04:08:17;;;;;;;;;;;;;;;;;;5058376;28;19974;-79
2022/08/25 04:10:43;;;;;;;;;;;;;;;;;;5075745;28;19920;-79
2022/08/25 04:13:08;;;;;;;;;;;;;;;;;;5058332;28;19916;-80
2022/08/25 04:15:34;;;;;;;;;;;;;;;;;;5058315;28;19916;-79
2022/08/25 04:17:59;;;;;;;;;;;;;;;;;;5075382;28;20003;-81
2022/08/25 04:20:24;;;;;;;;;;;;;;;;;;5093078;28;19920;-80
2022/08/25 04:22:49;;;;;;;;;;;;;;;;;;5093453;28;19916;-81
2022/08/25 04:25:15;;;;;;;;;;;;;;;;;;5075254;28;19916;-79
2022/08/25 04:27:40;;;;;;;;;;;;;;;;;;5075041;28;20327;-80
2022/08/25 04:30:06;;;;;;;;;;;;;;;;;;5057285;28;19912;-78
2022/08/25 04:32:32;;;;;;;;;;;;;;;;;;5097078;28;19920;-80
2022/08/25 04:34:57;;;;;;;;;;;;;;;;;;5068291;28;19912;-80
2022/08/25 04:37:23;;;;;;;;;;;;;;;;;;5081685;28;19927;-80
2022/08/25 04:39:48;;;;;;;;;;;;;;;;;;5062938;28;19931;-80
2022/08/25 04:42:13;;;;;;;;;;;;;;;;;;5062260;28;20344;-80
2022/08/25 04:44:39;;;;;;;;;;;;;;;;;;5081207;28;19981;-80
2022/08/25 04:47:05;;;;;;;;;;;;;;;;;;5064013;28;20010;-83
2022/08/25 04:49:30;;;;;;;;;;;;;;;;;;5080666;28;19916;-80
2022/08/25 04:51:56;;;;;;;;;;;;;;;;;;5060011;28;19982;-78
2022/08/25 04:54:21;;;;;;;;;;;;;;;;;;5077161;28;19920;-77
2022/08/25 04:56:48;;;;;;;;;;;;;;;;;;5076585;28;20323;-76
2022/08/25 04:59:14;;;;;;;;;;;;;;;;;;5059345;28;20291;-80
2022/08/25 05:01:41;;;;;;;;;;;;;;;;;;5041461;28;19913;-77
2022/08/25 05:04:07;;;;;;;;;;;;;;;;;;5058215;28;19943;-77
2022/08/25 05:06:32;;;;;;;;;;;;;;;;;;5042860;28;19928;-77
2022/08/25 05:08:58;;;;;;;;;;;;;;;;;;5058658;28;19912;-77
2022/08/25 05:11:24;;;;;;;;;;;;;;;;;;5058765;28;20022;-77
2022/08/25 05:13:50;;;;;;;;;;;;;;;;;;5059076;28;19921;-78
2022/08/25 05:16:16;;;;;;;;;;;;;;;;;;5042565;28;20264;-78
2022/08/25 05:18:41;;;;;;;;;;;;;;;;;;5058548;28;19917;-77
2022/08/25 05:21:11;;;;;;;;;;;;;;;;;;5041188;28;20347;-77
2022/08/25 05:23:37;;;;;;;;;;;;;;;;;;5058801;28;20034;-77
2022/08/25 05:26:04;;;;;;;;;;;;;;;;;;5058526;28;19944;-78
2022/08/25 05:28:30;;;;;;;;;;;;;;;;;;5058027;28;19959;-77
2022/08/25 05:30:59;;;;;;;;;;;;;;;;;;5075834;28;19955;-77
2022/08/25 05:33:25;;;;;;;;;;;;;;;;;;5040567;28;19971;-77
2022/08/25 05:35:50;;;;;;;;;;;;;;;;;;5057969;28;19913;-77
2022/08/25 05:38:16;;;;;;;;;;;;;;;;;;5058154;28;19912;-76
2022/08/25 05:40:41;;;;;;;;;;;;;;;;;;5041144;28;19995;-77
2022/08/25 05:43:06;;;;;;;;;;;;;;;;;;5074259;28;19927;-77
2022/08/25 05:45:32;;;;;;;;;;;;;;;;;;5058103;28;19963;-77
2022/08/25 05:47:57;;;;;;;;;;;;;;;;;;5073311;28;20305;-77
2022/08/25 05:50:22;;;;;;;;;;;;;;;;;;5060679;28;19951;-77
2022/08/25 05:52:48;;;;;;;;;;;;;;;;;;5077778;28;20344;-77
2022/08/25 05:55:16;;;;;;;;;;;;;;;;;;5060773;28;19916;-78
2022/08/25 05:57:41;;;;;;;;;;;;;;;;;;5077763;28;19916;-77
2022/08/25 06:00:07;;;;;;;;;;;;;;;;;;5060620;28;19919;-77
2022/08/25 06:02:46;;;;;;;;;;;;;;;;;;5079671;28;19916;-77
2022/08/25 06:05:16;;;;;;;;;;;;;;;;;;5079954;28;19992;-78
2022/08/25 06:07:42;;;;;;;;;;;;;;;;;;5060157;28;19912;-78
2022/08/25 06:10:10;;;;;;;;;;;;;;;;;;5076531;28;20019;-78
2022/08/25 06:12:36;;;;;;;;;;;;;;;;;;5060938;28;19974;-77
2022/08/25 06:15:02;;;;;;;;;;;;;;;;;;5060833;28;19920;-78
2022/08/25 06:17:27;;;;;;;;;;;;;;;;;;5059813;28;20026;-75
2022/08/25 06:19:53;;;;;;;;;;;;;;;;;;5060023;28;19940;-78
2022/08/25 06:22:20;;;;;;;;;;;;;;;;;;5076158;28;19916;-76
2022/08/25 06:24:45;;;;;;;;;;;;;;;;;;5078983;28;19916;-76
2022/08/25 06:27:10;;;;;;;;;;;;;;;;;;5078147;28;19976;-78
2022/08/25 06:29:36;;;;;;;;;;;;;;;;;;5096534;28;19916;-77
2022/08/25 06:32:01;;;;;;;;;;;;;;;;;;5078201;28;20280;-77
2022/08/25 06:34:26;;;;;;;;;;;;;;;;;;5095575;28;19926;-77
2022/08/25 06:36:52;;;;;;;;;;;;;;;;;;5077367;28;19920;-78
2022/08/25 06:39:17;;;;;;;;;;;;;;;;;;5076698;28;19912;-78
2022/08/25 06:41:43;;;;;;;;;;;;;;;;;;5061232;28;19920;-78
2022/08/25 06:44:09;;;;;;;;;;;;;;;;;;5076129;28;19969;-77
2022/08/25 06:46:35;;;;;;;;;;;;;;;;;;5076647;28;19981;-77
2022/08/25 06:49:00;;;;;;;;;;;;;;;;;;5062865;28;19949;-78
2022/08/25 06:51:26;;;;;;;;;;;;;;;;;;5057631;28;19924;-79
2022/08/25 06:53:51;;;;;;;;;;;;;;;;;;5075591;28;19917;-79
2022/08/25 06:56:18;;;;;;;;;;;;;;;;;;5057277;28;19912;-78
2022/08/25 06:58:43;;;;;;;;;;;;;;;;;;5056168;28;20335;-81
2022/08/25 07:01:20;;;;;;;;;;;;;;;;;;5074559;28;19923;-80
2022/08/25 07:03:46;;;;;;;;;;;;;;;;;;5058181;28;20006;-80
2022/08/25 07:06:12;;;;;;;;;;;;;;;;;;5040699;28;20406;-79
2022/08/25 07:08:37;;;;;;;;;;;;;;;;;;5073244;28;19921;-78
2022/08/25 07:11:05;;;;;;;;;;;;;;;;;;5073955;28;19924;-78
2022/08/25 07:13:31;;;;;;;;;;;;;;;;;;5056709;28;19920;-79
2022/08/25 07:15:58;;;;;;;;;;;;;;;;;;5075583;28;19958;-78
2022/08/25 07:18:25;;;;;;;;;;;;;;;;;;5040254;28;20382;-78
2022/08/25 07:20:52;;;;;;;;;;;;;;;;;;5055248;28;19943;-78
2022/08/25 07:23:18;;;;;;;;;;;;;;;;;;5055329;28;19916;-77
2022/08/25 07:25:43;;;;;;;;;;;;;;;;;;5055109;28;19912;-78
2022/08/25 07:28:08;;;;;;;;;;;;;;;;;;5055296;28;19916;-79
2022/08/25 07:30:34;;;;;;;;;;;;;;;;;;5039787;28;20298;-79
2022/08/25 07:32:59;;;;;;;;;;;;;;;;;;5055211;28;19923;-78
2022/08/25 07:35:26;;;;;;;;;;;;;;;;;;5073201;28;19916;-78
2022/08/25 07:37:55;;;;;;;;;;;;;;;;;;5038523;28;19916;-80
2022/08/25 07:40:31;;;;;;;;;;;;;;;;;;5055789;28;19981;-78
2022/08/25 07:42:57;;;;;;;;;;;;;;;;;;5055661;28;19985;-80
2022/08/25 07:45:29;;;;;;;;;;;;;;;;;;5055364;28;19920;-80
2022/08/25 07:47:55;;;;;;;;;;;;;;;;;;5039248;28;20272;-78
2022/08/25 07:50:20;;;;;;;;;;;;;;;;;;5041271;28;19924;-80
2022/08/25 07:52:46;;;;;;;;;;;;;;;;;;5075062;28;20324;-78
2022/08/25 07:55:12;;;;;;;;;;;;;;;;;;5074854;28;19916;-78
2022/08/25 07:57:41;;;;;;;;;;;;;;;;;;5058090;28;19912;-77
2022/08/25 08:00:07;;;;;;;;;;;;;;;;;;5074905;28;19916;-79
2022/08/25 08:02:34;;;;;;;;;;;;;;;;;;5096780;28;21359;-78
2022/08/25 08:04:59;;;;;;;;;;;;;;;;;;5077324;28;19916;-78
2022/08/25 08:07:25;;;;;;;;;;;;;;;;;;5075554;28;19916;-79
2022/08/25 08:09:51;;;;;;;;;;;;;;;;;;5075011;28;19912;-80
2022/08/25 08:12:16;;;;;;;;;;;;;;;;;;5078469;28;19927;-77
2022/08/25 08:14:42;;;;;;;;;;;;;;;;;;5078971;28;20266;-78
2022/08/25 08:17:07;;;;;;;;;;;;;;;;;;5078186;28;20008;-78
2022/08/25 08:19:33;;;;;;;;;;;;;;;;;;5078775;28;19920;-78
2022/08/25 08:21:59;;;;;;;;;;;;;;;;;;5062936;28;20438;-78
2022/08/25 08:24:24;;;;;;;;;;;;;;;;;;5061739;28;20286;-80
2022/08/25 08:26:53;;;;;;;;;;;;;;;;;;5098954;28;19919;-77
2022/08/25 08:29:20;;;;;;;;;;;;;;;;;;5084587;28;19920;-77
2022/08/25 08:31:46;;;;;;;;;;;;;;;;;;5099254;28;19920;-78
2022/08/25 08:34:12;;;;;;;;;;;;;;;;;;5083246;28;20293;-77
2022/08/25 08:36:37;;;;;;;;;;;;;;;;;;5081641;28;19998;-77
2022/08/25 08:39:02;;;;;;;;;;;;;;;;;;5098363;28;19959;-78
2022/08/25 08:44:33;;;;;;;;;;;;;;;;;;5096629;28;19969;-79
2022/08/25 08:47:11;;;;;;;;;;;;;;;;;;5077885;28;19923;-80
2022/08/25 08:49:43;;;;;;;;;;;;;;;;;;5077752;28;19912;-81
2022/08/25 08:52:09;;;;;;;;;;;;;;;;;;5060266;28;20363;-78
2022/08/25 08:54:35;;;;;;;;;;;;;;;;;;5059155;28;19921;-81
2022/08/25 08:57:19;;;;;;;;;;;;;;;;;;5057904;28;19999;-80
2022/08/25 08:59:46;;;;;;;;;;;;;;;;;;5040962;28;19958;-80
2022/08/25 09:02:14;;;;;;;;;;;;;;;;;;5041127;28;20021;-80
2022/08/25 09:04:47;;;;;;;;;;;;;;;;;;5041451;28;19912;-81
2022/08/25 09:07:21;;;;;;;;;;;;;;;;;;5040577;28;20022;-81
2022/08/25 09:09:46;;;;;;;;;;;;;;;;;;5057649;28;19912;-80
2022/08/25 09:12:18;;;;;;;;;;;;;;;;;;5057512;28;20363;-79
2022/08/25 09:14:43;;;;;;;;;;;;;;;;;;5075548;28;20383;-79
2022/08/25 09:17:41;;;;;;;;;;;;;;;;;;5070287;28;20008;-80
2022/08/25 09:20:12;;;;;;;;;;;;;;;;;;5030457;28;20332;-78
2022/08/25 09:22:56;;;;;;;;;;;;;;;;;;5073310;28;19962;-79
2022/08/25 09:25:30;;;;;;;;;;;;;;;;;;5074759;28;19951;-80
2022/08/25 09:28:05;;;;;;;;;;;;;;;;;;5075121;28;20004;-81
2022/08/25 09:30:38;;;;;;;;;;;;;;;;;;5040265;28;19913;-80
2022/08/25 09:33:04;;;;;;;;;;;;;;;;;;5040158;28;19912;-80
2022/08/25 09:35:31;;;;;;;;;;;;;;;;;;5056331;28;19917;-80
2022/08/25 09:38:01;;;;;;;;;;;;;;;;;;5040058;28;19922;-80
2022/08/25 09:40:27;;;;;;;;;;;;;;;;;;5040482;28;20293;-81
2022/08/25 09:42:54;;;;;;;;;;;;;;;;;;5056395;28;20381;-81
2022/08/25 09:45:40;;;;;;;;;;;;;;;;;;5050782;28;19921;-80
2022/08/25 09:48:24;;;;;;;;;;;;;;;;;;5036017;28;20232;-79
2022/08/25 09:50:50;;;;;;;;;;;;;;;;;;5023581;28;19920;-79
2022/08/25 09:53:16;;;;;;;;;;;;;;;;;;5054829;28;20014;-79
2022/08/25 09:55:42;;;;;;;;;;;;;;;;;;5039712;28;19987;-79
2022/08/25 09:58:18;;;;;;;;;;;;;;;;;;5039938;28;19920;-79
2022/08/25 10:00:43;;;;;;;;;;;;;;;;;;5056720;28;19974;-80
2022/08/25 10:03:19;;;;;;;;;;;;;;;;;;5040432;28;19917;-80
2022/08/25 10:05:53;;;;;;;;;;;;;;;;;;5075706;28;19917;-80
2022/08/25 10:08:31;;;;;;;;;;;;;;;;;;5056498;28;19916;-80
2022/08/25 10:10:57;;;;;;;;;;;;;;;;;;5056438;28;19982;-81
2022/08/25 10:13:31;;;;;;;;;;;;;;;;;;5039068;28;19916;-79
2022/08/25 10:16:07;;;;;;;;;;;;;;;;;;5039175;28;19923;-79
2022/08/25 10:18:33;;;;;;;;;;;;;;;;;;5039602;28;19923;-79
2022/08/25 10:21:03;;;;;;;;;;;;;;;;;;5055779;28;19917;-79
2022/08/25 10:23:29;;;;;;;;;;;;;;;;;;5056357;28;19923;-78
2022/08/25 10:25:54;;;;;;;;;;;;;;;;;;5056461;28;19995;-79
2022/08/25 10:28:25;;;;;;;;;;;;;;;;;;5039480;28;20332;-79
2022/08/25 10:31:13;;;;;;;;;;;;;;;;;;5056353;28;19926;-78
2022/08/25 10:33:44;;;;;;;;;;;;;;;;;;5056149;28;19919;-78
2022/08/25 10:36:14;;;;;;;;;;;;;;;;;;5056143;28;19916;-79
2022/08/25 10:38:43;;;;;;;;;;;;;;;;;;5056002;28;19993;-78
2022/08/25 10:41:27;;;;;;;;;;;;;;;;;;5057452;28;20004;-78
2022/08/25 10:43:53;;;;;;;;;;;;;;;;;;5055688;28;19920;-79
2022/08/25 10:46:37;;;;;;;;;;;;;;;;;;5056559;28;19924;-79
2022/08/25 10:49:03;;;;;;;;;;;;;;;;;;5056189;28;19913;-79
2022/08/25 10:51:34;;;;;;;;;;;;;;;;;;5062689;28;19924;-78
2022/08/25 10:54:03;;;;;;;;;;;;;;;;;;5035174;28;19913;-79
2022/08/25 10:56:30;;;;;;;;;;;;;;;;;;5053670;28;19920;-79
2022/08/25 10:59:11;;;;;;;;;;;;;;;;;;5035418;28;19969;-78
2022/08/25 11:01:37;;;;;;;;;;;;;;;;;;5019163;28;19936;-79
2022/08/25 11:04:09;;;;;;;;;;;;;;;;;;5053327;28;19936;-79
2022/08/25 11:06:39;;;;;;;;;;;;;;;;;;5019673;28;20311;-79
2022/08/25 11:09:06;;;;;;;;;;;;;;;;;;5035845;28;19913;-79
2022/08/25 11:11:33;;;;;;;;;;;;;;;;;;5035814;28;20298;-79
2022/08/25 11:14:18;;;;;;;;;;;;;;;;;;5036207;28;20417;-78
2022/08/25 11:16:46;;;;;;;;;;;;;;;;;;5035592;28;19924;-78
2022/08/25 11:19:13;;;;;;;;;;;;;;;;;;5053292;28;19913;-79
2022/08/25 11:21:41;;;;;;;;;;;;;;;;;;5035234;28;19952;-80
2022/08/25 11:24:08;;;;;;;;;;;;;;;;;;5035487;28;19939;-79
2022/08/25 11:26:33;;;;;;;;;;;;;;;;;;5052935;28;20262;-79
2022/08/25 11:29:01;;;;;;;;;;;;;;;;;;5036015;28;19917;-79
2022/08/25 11:31:27;;;;;;;;;;;;;;;;;;5052900;28;20256;-80
2022/08/25 11:33:52;;;;;;;;;;;;;;;;;;5035348;28;19974;-80
2022/08/25 11:36:17;;;;;;;;;;;;;;;;;;5018457;28;20427;-80
2022/08/25 11:38:53;;;;;;;;;;;;;;;;;;5034630;28;19913;-80
2022/08/25 11:41:35;;;;;;;;;;;;;;;;;;5034841;28;19913;-80
2022/08/25 11:44:03;;;;;;;;;;;;;;;;;;5034692;28;20291;-80
2022/08/25 11:46:32;;;;;;;;;;;;;;;;;;5037103;28;19919;-80
2022/08/25 11:49:00;;;;;;;;;;;;;;;;;;5056804;28;19920;-80
2022/08/25 11:51:32;;;;;;;;;;;;;;;;;;5068992;28;19921;-80
2022/08/25 11:54:16;;;;;;;;;;;;;;;;;;5044637;28;19920;-80
2022/08/25 11:56:41;;;;;;;;;;;;;;;;;;5061080;28;19919;-79
2022/08/25 11:59:06;;;;;;;;;;;;;;;;;;5077762;28;19913;-80
2022/08/25 12:01:38;;;;;;;;;;;;;;;;;;5077158;28;19973;-80
2022/08/25 12:04:13;;;;;;;;;;;;;;;;;;5077488;28;20019;-79
2022/08/25 12:06:57;;;;;;;;;;;;;;;;;;5059497;28;19913;-79
2022/08/25 12:09:23;;;;;;;;;;;;;;;;;;5058982;28;20286;-79
2022/08/25 12:11:56;;;;;;;;;;;;;;;;;;5058786;28;19916;-79
2022/08/25 12:14:25;;;;;;;;;;;;;;;;;;5041233;28;19931;-79
2022/08/25 12:16:50;;;;;;;;;;;;;;;;;;5073939;28;20381;-80
2022/08/25 12:19:33;;;;;;;;;;;;;;;;;;5078029;28;19912;-80
2022/08/25 12:22:01;;;;;;;;;;;;;;;;;;5085314;28;20444;-80
2022/08/25 12:24:42;;;;;;;;;;;;;;;;;;5068545;28;20011;-80
2022/08/25 12:27:23;;;;;;;;;;;;;;;;;;5061307;28;19912;-80
2022/08/25 12:29:50;;;;;;;;;;;;;;;;;;5084628;28;19917;-80
2022/08/25 12:32:15;;;;;;;;;;;;;;;;;;5051034;28;20006;-80
2022/08/25 12:34:47;;;;;;;;;;;;;;;;;;5064925;28;19959;-80
2022/08/25 12:37:22;;;;;;;;;;;;;;;;;;5074044;28;19919;-81
2022/08/25 12:39:47;;;;;;;;;;;;;;;;;;5063113;28;20263;-80
2022/08/25 12:42:31;;;;;;;;;;;;;;;;;;5086558;28;19927;-81
2022/08/25 12:45:24;;;;;;;;;;;;;;;;;;5091059;28;19915;-81
2022/08/25 12:47:50;;;;;;;;;;;;;;;;;;5059975;28;19970;-81
2022/08/25 12:50:25;;;;;;;;;;;;;;;;;;5063432;27;19912;-80
2022/08/25 12:52:51;;;;;;;;;;;;;;;;;;5082809;28;19982;-80
2022/08/25 12:55:16;;;;;;;;;;;;;;;;;;5075624;28;19924;-80
2022/08/25 12:57:42;;;;;;;;;;;;;;;;;;5081912;28;19965;-80
2022/08/25 13:00:15;;;;;;;;;;;;;;;;;;5064430;28;19920;-80
2022/08/25 13:02:59;;;;;;;;;;;;;;;;;;5077268;28;19912;-80
2022/08/25 13:05:24;;;;;;;;;;;;;;;;;;5109253;28;20065;-79
2022/08/25 13:07:57;;;;;;;;;;;;;;;;;;5083377;28;19988;-80
2022/08/25 13:10:31;;;;;;;;;;;;;;;;;;5076337;28;19913;-80
2022/08/25 13:13:03;;;;;;;;;;;;;;;;;;5087624;28;19959;-80
2022/08/25 13:15:34;;;;;;;;;;;;;;;;;;5060743;28;19924;-80
2022/08/25 13:18:35;;;;;;;;;;;;;;;;;;5100715;28;20388;-80
2022/08/25 13:21:08;;;;;;;;;;;;;;;;;;4996301;28;19936;-80
2022/08/25 13:23:35;;;;;;;;;;;;;;;;;;4964501;28;19921;-80
2022/08/25 13:26:01;;;;;;;;;;;;;;;;;;4980091;28;19913;-80
2022/08/25 13:28:27;;;;;;;;;;;;;;;;;;5012919;28;19928;-79
2022/08/25 13:30:56;;;;;;;;;;;;;;;;;;4997180;28;20269;-79
2022/08/25 13:33:22;;;;;;;;;;;;;;;;;;5014034;28;19918;-80
2022/08/25 13:38:36;;;;;;;;;;;;;;;;;;4999745;28;19921;-79
2022/08/25 13:41:02;;;;;;;;;;;;;;;;;;4980215;28;19918;-79
2022/08/25 13:43:28;;;;;;;;;;;;;;;;;;4980940;28;19922;-80
2022/08/25 13:45:53;;;;;;;;;;;;;;;;;;4980971;28;19941;-79
2022/08/25 13:48:32;;;;;;;;;;;;;;;;;;4998546;28;20320;-80
2022/08/25 13:51:08;;;;;;;;;;;;;;;;;;4985899;28;19921;-80
2022/08/25 13:53:33;;;;;;;;;;;;;;;;;;4998102;28;20007;-80
2022/08/25 13:56:02;;;;;;;;;;;;;;;;;;5090085;28;19916;-79
2022/08/25 13:58:32;;;;;;;;;;;;;;;;;;5062262;28;19912;-80
2022/08/25 14:01:14;;;;;;;;;;;;;;;;;;5060912;28;19924;-80
2022/08/25 14:03:44;;;;;;;;;;;;;;;;;;5060950;28;19912;-80
2022/08/25 14:06:15;;;;;;;;;;;;;;;;;;5060266;28;19919;-80
2022/08/25 14:08:40;;;;;;;;;;;;;;;;;;5077023;28;19920;-78
2022/08/25 14:11:27;;;;;;;;;;;;;;;;;;5078202;28;19985;-80
2022/08/25 14:13:59;;;;;;;;;;;;;;;;;;5061079;28;19992;-80
2022/08/25 14:16:25;;;;;;;;;;;;;;;;;;5078407;28;19912;-80
2022/08/25 14:18:52;;;;;;;;;;;;;;;;;;5078373;28;20065;-79
2022/08/25 14:21:18;;;;;;;;;;;;;;;;;;5061501;28;19913;-79
2022/08/25 14:23:43;;;;;;;;;;;;;;;;;;5062440;28;19923;-80
2022/08/25 14:26:08;;;;;;;;;;;;;;;;;;5094802;28;19923;-80
2022/08/25 14:28:34;;;;;;;;;;;;;;;;;;5077157;28;19919;-80
2022/08/25 14:31:07;;;;;;;;;;;;;;;;;;5062208;28;19924;-79
2022/08/25 14:33:33;;;;;;;;;;;;;;;;;;5097754;28;20049;-80
2022/08/25 14:35:58;;;;;;;;;;;;;;;;;;5077942;28;20294;-79
2022/08/25 14:38:24;;;;;;;;;;;;;;;;;;5077606;28;19916;-80
2022/08/25 14:40:50;;;;;;;;;;;;;;;;;;5060172;28;19923;-80
2022/08/25 14:43:15;;;;;;;;;;;;;;;;;;5059549;28;19912;-80
2022/08/25 14:45:42;;;;;;;;;;;;;;;;;;5059532;28;19916;-80
2022/08/25 14:48:08;;;;;;;;;;;;;;;;;;5059521;28;20358;-81
2022/08/25 14:50:34;;;;;;;;;;;;;;;;;;5094025;28;19924;-80
2022/08/25 14:53:00;;;;;;;;;;;;;;;;;;5074056;28;20333;-80
2022/08/25 14:55:25;;;;;;;;;;;;;;;;;;5077372;28;19920;-80
2022/08/25 14:57:50;;;;;;;;;;;;;;;;;;5077269;28;19944;-80
2022/08/25 15:00:16;;;;;;;;;;;;;;;;;;5077593;28;19916;-79
2022/08/25 15:02:41;;;;;;;;;;;;;;;;;;5076823;28;19923;-79
2022/08/25 15:05:09;;;;;;;;;;;;;;;;;;5059872;28;19970;-80
2022/08/25 15:10:19;;;;;;;;;;;;;;;;;;5094684;28;20015;-79
2022/08/25 15:12:44;;;;;;;;;;;;;;;;;;5058950;28;20010;-78
2022/08/25 15:15:10;;;;;;;;;;;;;;;;;;5094193;28;20011;-79
2022/08/25 15:17:36;;;;;;;;;;;;;;;;;;5059744;28;20303;-78
2022/08/25 15:20:01;;;;;;;;;;;;;;;;;;5060226;28;19915;-79
2022/08/25 15:22:27;;;;;;;;;;;;;;;;;;5059290;28;19939;-79
2022/08/25 15:24:52;;;;;;;;;;;;;;;;;;5076360;28;19920;-79
2022/08/25 15:27:18;;;;;;;;;;;;;;;;;;5094812;28;19916;-79
2022/08/25 15:29:43;;;;;;;;;;;;;;;;;;5058829;28;20366;-79
2022/08/25 15:32:08;;;;;;;;;;;;;;;;;;5094651;28;20007;-80
2022/08/25 15:34:34;;;;;;;;;;;;;;;;;;5076304;28;20307;-79
2022/08/25 15:37:05;;;;;;;;;;;;;;;;;;5076191;28;19912;-79
2022/08/25 15:39:32;;;;;;;;;;;;;;;;;;5059504;28;19912;-79
2022/08/25 15:41:58;;;;;;;;;;;;;;;;;;5059898;28;19916;-78
2022/08/25 15:44:26;;;;;;;;;;;;;;;;;;5075598;28;20022;-78
2022/08/25 15:47:06;;;;;;;;;;;;;;;;;;5092536;28;19952;-79
2022/08/25 15:49:46;;;;;;;;;;;;;;;;;;5094190;28;19912;-78
2022/08/25 15:52:13;;;;;;;;;;;;;;;;;;5103347;28;19969;-79
2022/08/25 15:54:39;;;;;;;;;;;;;;;;;;5095058;28;19923;-78
2022/08/25 15:57:04;;;;;;;;;;;;;;;;;;5114222;28;20305;-78
2022/08/25 15:59:30;;;;;;;;;;;;;;;;;;5096048;28;19916;-78
2022/08/25 16:01:55;;;;;;;;;;;;;;;;;;5095685;28;19911;-79
2022/08/25 16:04:25;;;;;;;;;;;;;;;;;;5096011;28;20343;-77
2022/08/25 16:06:51;;;;;;;;;;;;;;;;;;5096017;28;19912;-81
2022/08/25 16:09:17;;;;;;;;;;;;;;;;;;5096477;28;19911;-81
2022/08/25 16:11:42;;;;;;;;;;;;;;;;;;5096622;28;20289;-80
2022/08/25 16:14:08;;;;;;;;;;;;;;;;;;5096458;28;19916;-82
2022/08/25 16:16:33;;;;;;;;;;;;;;;;;;5095199;28;19920;-80
2022/08/25 16:18:58;;;;;;;;;;;;;;;;;;5113598;28;19923;-79
2022/08/25 16:21:25;;;;;;;;;;;;;;;;;;5113314;28;19916;-80
2022/08/25 16:23:55;;;;;;;;;;;;;;;;;;5077921;28;19957;-80
2022/08/25 16:26:20;;;;;;;;;;;;;;;;;;5097164;28;19956;-80
2022/08/25 16:28:46;;;;;;;;;;;;;;;;;;5097482;28;20002;-79
2022/08/25 16:31:12;;;;;;;;;;;;;;;;;;5096856;28;19923;-79
2022/08/25 16:33:37;;;;;;;;;;;;;;;;;;5100669;28;19919;-78
2022/08/25 16:36:13;;;;;;;;;;;;;;;;;;5117917;28;19920;-79
2022/08/25 16:38:39;;;;;;;;;;;;;;;;;;5082441;28;19912;-78
2022/08/25 16:41:05;;;;;;;;;;;;;;;;;;5099827;28;20003;-80
2022/08/25 16:43:30;;;;;;;;;;;;;;;;;;5099875;28;20381;-81
2022/08/25 16:45:59;;;;;;;;;;;;;;;;;;5099646;28;19951;-83
2022/08/25 16:48:24;;;;;;;;;;;;;;;;;;5100852;28;20049;-82
2022/08/25 16:50:50;;;;;;;;;;;;;;;;;;5079664;28;20393;-81
2022/08/25 16:56:00;;;;;;;;;;;;;;;;;;5099109;28;19977;-80
2022/08/25 16:58:25;;;;;;;;;;;;;;;;;;5080626;28;19924;-82
2022/08/25 17:00:51;;;;;;;;;;;;;;;;;;5097440;28;20282;-83